createdAt,value
2019-03-29T00:00:14.539Z,12.13
2019-03-29T00:01:14.498Z,12.17
2019-03-29T00:02:14.525Z,12.17
2019-03-29T00:03:14.476Z,12.1
2019-03-29T00:04:14.487Z,12.13
2019-03-29T00:05:14.462Z,12.12
2019-03-29T00:06:15.607Z,12.14
2019-03-29T00:07:14.444Z,11.99
2019-03-29T00:08:14.452Z,12.02
2019-03-29T00:09:14.208Z,12.13
2019-03-29T00:10:14.446Z,12.02
2019-03-29T00:11:15.421Z,12.09
2019-03-29T00:12:14.408Z,11.96
2019-03-29T00:13:17.073Z,12.12
2019-03-29T00:14:14.452Z,12.09
2019-03-29T00:15:14.372Z,12.13
2019-03-29T00:16:14.391Z,12.04
2019-03-29T00:17:14.350Z,11.96
2019-03-29T00:18:15.047Z,12.01
2019-03-29T00:19:14.331Z,12.02
2019-03-29T00:20:14.339Z,12.04
2019-03-29T00:21:15.481Z,12.01
2019-03-29T00:22:14.333Z,12.02
2019-03-29T00:23:14.325Z,11.96
2019-03-29T00:24:14.928Z,11.98
2019-03-29T00:25:14.277Z,11.96
2019-03-29T00:26:14.269Z,12.01
2019-03-29T00:27:14.298Z,11.95
2019-03-29T00:28:15.702Z,11.99
2019-03-29T00:29:14.271Z,11.98
2019-03-29T00:30:14.233Z,11.96
2019-03-29T00:31:14.252Z,11.9
2019-03-29T00:32:14.230Z,11.99
2019-03-29T00:33:14.217Z,11.9
2019-03-29T00:34:14.258Z,11.85
2019-03-29T00:35:14.182Z,11.85
2019-03-29T00:36:14.193Z,11.82
2019-03-29T00:37:14.161Z,11.86
2019-03-29T00:38:14.190Z,11.8
2019-03-29T00:39:14.898Z,11.83
2019-03-29T00:40:14.153Z,11.79
2019-03-29T00:41:14.132Z,11.82
2019-03-29T00:42:14.122Z,11.79
2019-03-29T00:43:14.136Z,11.82
2019-03-29T00:44:14.117Z,11.8
2019-03-29T00:45:14.122Z,11.83
2019-03-29T00:46:14.399Z,11.79
2019-03-29T00:47:14.099Z,11.86
2019-03-29T00:48:14.057Z,11.8
2019-03-29T00:49:14.299Z,11.85
2019-03-29T00:50:14.049Z,11.8
2019-03-29T00:51:14.069Z,11.82
2019-03-29T00:52:14.038Z,11.85
2019-03-29T00:53:14.167Z,11.86
2019-03-29T00:54:14.006Z,11.82
2019-03-29T00:55:14.000Z,11.79
2019-03-29T00:56:15.436Z,11.79
2019-03-29T00:57:14.010Z,11.82
2019-03-29T00:58:14.062Z,11.76
2019-03-29T00:59:14.285Z,11.85
2019-03-29T01:00:13.965Z,11.76
2019-03-29T01:01:13.975Z,11.8
2019-03-29T01:02:13.930Z,11.78
2019-03-29T01:03:13.963Z,11.69
2019-03-29T01:04:13.914Z,11.79
2019-03-29T01:05:13.933Z,11.62
2019-03-29T01:06:15.354Z,11.7
2019-03-29T01:07:13.915Z,11.73
2019-03-29T01:08:15.249Z,11.65
2019-03-29T01:09:13.907Z,11.67
2019-03-29T01:10:13.858Z,11.55
2019-03-29T01:11:14.257Z,11.52
2019-03-29T01:12:13.848Z,11.62
2019-03-29T01:13:13.861Z,11.62
2019-03-29T01:14:13.939Z,11.54
2019-03-29T01:15:14.201Z,11.52
2019-03-29T01:16:13.812Z,11.54
2019-03-29T01:17:13.792Z,11.58
2019-03-29T01:18:14.345Z,11.62
2019-03-29T01:19:13.773Z,11.55
2019-03-29T01:20:13.794Z,11.64
2019-03-29T01:21:14.056Z,11.61
2019-03-29T01:22:13.775Z,11.57
2019-03-29T01:23:13.787Z,11.69
2019-03-29T01:24:13.739Z,11.55
2019-03-29T01:25:13.746Z,11.57
2019-03-29T01:26:13.710Z,11.52
2019-03-29T01:27:13.695Z,11.57
2019-03-29T01:28:14.614Z,11.62
2019-03-29T01:29:13.704Z,11.57
2019-03-29T01:30:13.715Z,11.51
2019-03-29T01:31:14.485Z,11.61
2019-03-29T01:32:13.661Z,11.69
2019-03-29T01:33:13.636Z,11.72
2019-03-29T01:34:13.663Z,11.69
2019-03-29T01:35:14.262Z,11.75
2019-03-29T01:36:13.621Z,11.75
2019-03-29T01:37:13.632Z,11.75
2019-03-29T01:38:26.780Z,11.65
2019-03-29T01:39:13.655Z,11.76
2019-03-29T01:40:14.112Z,11.79
2019-03-29T01:41:13.595Z,11.73
2019-03-29T01:42:13.560Z,11.82
2019-03-29T01:43:14.758Z,11.79
2019-03-29T01:44:13.545Z,11.75
2019-03-29T01:45:13.554Z,11.83
2019-03-29T01:46:14.337Z,11.83
2019-03-29T01:47:13.505Z,11.8
2019-03-29T01:48:13.506Z,11.79
2019-03-29T01:49:13.517Z,11.76
2019-03-29T01:50:13.482Z,11.76
2019-03-29T01:51:13.492Z,11.76
2019-03-29T01:52:13.456Z,11.76
2019-03-29T01:53:14.362Z,11.78
2019-03-29T01:54:13.436Z,11.64
2019-03-29T01:55:13.460Z,11.75
2019-03-29T01:56:14.237Z,11.72
2019-03-29T01:57:13.446Z,11.72
2019-03-29T01:58:13.399Z,11.7
2019-03-29T01:59:13.390Z,11.72
2019-03-29T02:00:14.258Z,11.79
2019-03-29T02:01:13.403Z,11.67
2019-03-29T02:02:13.402Z,11.76
2019-03-29T02:03:13.430Z,11.72
2019-03-29T02:04:13.358Z,11.73
2019-03-29T02:05:13.340Z,11.67
2019-03-29T02:06:13.355Z,11.52
2019-03-29T02:07:14.375Z,11.58
2019-03-29T02:08:13.339Z,11.57
2019-03-29T02:09:13.294Z,11.61
2019-03-29T02:10:13.319Z,11.58
2019-03-29T02:11:13.278Z,11.55
2019-03-29T02:12:13.287Z,11.52
2019-03-29T02:13:13.269Z,11.55
2019-03-29T02:14:13.285Z,11.58
2019-03-29T02:15:14.290Z,11.62
2019-03-29T02:16:13.243Z,11.58
2019-03-29T02:17:13.251Z,11.58
2019-03-29T02:18:13.914Z,11.58
2019-03-29T02:19:13.208Z,11.58
2019-03-29T02:20:13.225Z,11.49
2019-03-29T02:21:13.186Z,11.49
2019-03-29T02:22:13.888Z,11.51
2019-03-29T02:23:13.172Z,11.6
2019-03-29T02:24:13.186Z,11.55
2019-03-29T02:25:13.144Z,11.54
2019-03-29T02:26:13.910Z,11.52
2019-03-29T02:27:13.125Z,11.6
2019-03-29T02:28:13.139Z,11.55
2019-03-29T02:29:13.615Z,11.64
2019-03-29T02:30:13.193Z,11.54
2019-03-29T02:31:13.117Z,11.67
2019-03-29T02:32:13.112Z,11.69
2019-03-29T02:33:13.210Z,11.67
2019-03-29T02:34:13.098Z,11.69
2019-03-29T02:35:14.282Z,11.72
2019-03-29T02:36:13.062Z,11.54
2019-03-29T02:37:13.086Z,11.6
2019-03-29T02:38:12.797Z,11.57
2019-03-29T02:39:13.046Z,11.64
2019-03-29T02:40:13.024Z,11.46
2019-03-29T02:41:13.001Z,11.51
2019-03-29T02:42:14.698Z,11.46
2019-03-29T02:43:13.579Z,11.49
2019-03-29T02:44:13.006Z,11.54
2019-03-29T02:45:12.990Z,11.57
2019-03-29T02:46:12.986Z,11.61
2019-03-29T02:47:12.964Z,11.54
2019-03-29T02:48:12.960Z,11.54
2019-03-29T02:49:15.150Z,11.47
2019-03-29T02:50:13.950Z,11.47
2019-03-29T02:51:12.944Z,11.49
2019-03-29T02:52:12.916Z,11.46
2019-03-29T02:53:12.932Z,11.47
2019-03-29T02:54:12.894Z,11.4
2019-03-29T02:55:12.921Z,11.42
2019-03-29T02:56:12.852Z,11.42
2019-03-29T02:57:12.886Z,11.32
2019-03-29T02:58:12.840Z,11.43
2019-03-29T02:59:12.862Z,11.4
2019-03-29T03:00:12.872Z,11.42
2019-03-29T03:01:12.836Z,11.4
2019-03-29T03:02:12.795Z,11.42
2019-03-29T03:03:12.803Z,11.43
2019-03-29T03:04:12.792Z,11.37
2019-03-29T03:05:12.815Z,11.42
2019-03-29T03:06:12.765Z,11.42
2019-03-29T03:07:12.910Z,11.37
2019-03-29T03:08:12.768Z,11.27
2019-03-29T03:09:19.069Z,11.29
2019-03-29T03:10:12.727Z,11.22
2019-03-29T03:11:12.739Z,11.27
2019-03-29T03:12:12.718Z,11.32
2019-03-29T03:13:12.732Z,11.35
2019-03-29T03:14:12.696Z,11.35
2019-03-29T03:15:12.706Z,11.37
2019-03-29T03:16:12.688Z,11.4
2019-03-29T03:17:12.692Z,11.4
2019-03-29T03:18:12.650Z,11.42
2019-03-29T03:19:12.800Z,11.36
2019-03-29T03:20:17.328Z,11.4
2019-03-29T03:21:12.615Z,11.42
2019-03-29T03:22:12.604Z,11.46
2019-03-29T03:23:12.620Z,11.37
2019-03-29T03:24:12.600Z,11.4
2019-03-29T03:25:12.616Z,11.35
2019-03-29T03:26:12.567Z,11.29
2019-03-29T03:27:12.605Z,11.35
2019-03-29T03:28:12.544Z,11.35
2019-03-29T03:29:12.569Z,11.22
2019-03-29T03:30:12.550Z,11.28
2019-03-29T03:31:12.567Z,11.32
2019-03-29T03:32:12.567Z,11.35
2019-03-29T03:33:12.553Z,11.25
2019-03-29T03:34:12.533Z,11.28
2019-03-29T03:35:12.544Z,11.28
2019-03-29T03:36:12.485Z,11.29
2019-03-29T03:37:12.465Z,11.28
2019-03-29T03:38:12.462Z,11.27
2019-03-29T03:39:30.084Z,11.18
2019-03-29T03:40:12.458Z,11.22
2019-03-29T03:41:12.456Z,11.36
2019-03-29T03:42:12.425Z,11.24
2019-03-29T03:43:12.469Z,11.29
2019-03-29T03:44:12.393Z,11.25
2019-03-29T03:45:12.419Z,11.24
2019-03-29T03:46:12.383Z,11.25
2019-03-29T03:47:12.408Z,11.28
2019-03-29T03:48:12.375Z,11.25
2019-03-29T03:49:12.375Z,11.28
2019-03-29T03:50:12.333Z,11.36
2019-03-29T03:51:12.332Z,11.4
2019-03-29T03:52:12.333Z,11.32
2019-03-29T03:53:12.338Z,11.33
2019-03-29T03:54:12.326Z,11.4
2019-03-29T03:55:12.287Z,11.4
2019-03-29T03:56:12.296Z,11.42
2019-03-29T03:57:12.295Z,11.43
2019-03-29T03:58:12.256Z,11.36
2019-03-29T03:59:12.282Z,11.4
2019-03-29T04:00:11.987Z,11.37
2019-03-29T04:01:12.271Z,11.43
2019-03-29T04:02:12.225Z,11.4
2019-03-29T04:03:12.239Z,11.46
2019-03-29T04:04:12.224Z,11.49
2019-03-29T04:05:12.239Z,11.46
2019-03-29T04:06:12.184Z,11.54
2019-03-29T04:07:12.172Z,11.54
2019-03-29T04:08:12.178Z,11.51
2019-03-29T04:09:12.226Z,11.55
2019-03-29T04:10:12.167Z,11.57
2019-03-29T04:11:12.138Z,11.46
2019-03-29T04:12:12.140Z,11.51
2019-03-29T04:13:12.120Z,11.52
2019-03-29T04:14:12.144Z,11.61
2019-03-29T04:15:12.090Z,11.47
2019-03-29T04:16:12.120Z,11.61
2019-03-29T04:17:12.077Z,11.55
2019-03-29T04:18:15.673Z,11.47
2019-03-29T04:19:12.079Z,11.55
2019-03-29T04:20:12.057Z,11.6
2019-03-29T04:21:12.027Z,11.55
2019-03-29T04:22:12.061Z,11.58
2019-03-29T04:23:12.024Z,11.47
2019-03-29T04:24:12.078Z,11.54
2019-03-29T04:25:12.034Z,11.52
2019-03-29T04:26:12.021Z,11.58
2019-03-29T04:27:12.004Z,11.57
2019-03-29T04:28:11.981Z,11.6
2019-03-29T04:29:11.957Z,11.6
2019-03-29T04:30:12.069Z,11.61
2019-03-29T04:31:11.839Z,11.61
2019-03-29T04:32:11.967Z,11.55
2019-03-29T04:33:16.017Z,11.58
2019-03-29T04:34:11.991Z,11.61
2019-03-29T04:35:11.901Z,11.64
2019-03-29T04:36:12.083Z,11.67
2019-03-29T04:37:11.899Z,11.64
2019-03-29T04:38:12.043Z,11.64
2019-03-29T04:39:11.908Z,11.72
2019-03-29T04:40:13.694Z,11.62
2019-03-29T04:41:11.842Z,11.67
2019-03-29T04:42:11.968Z,11.72
2019-03-29T04:43:11.852Z,11.61
2019-03-29T04:44:11.827Z,11.62
2019-03-29T04:45:11.593Z,11.58
2019-03-29T04:46:11.863Z,11.51
2019-03-29T04:47:11.816Z,11.46
2019-03-29T04:48:12.032Z,11.57
2019-03-29T04:49:11.518Z,11.54
2019-03-29T04:50:11.782Z,11.52
2019-03-29T04:51:11.738Z,11.58
2019-03-29T04:52:11.751Z,11.61
2019-03-29T04:53:11.722Z,11.75
2019-03-29T04:54:11.770Z,11.72
2019-03-29T04:55:11.730Z,11.7
2019-03-29T04:56:11.718Z,11.8
2019-03-29T04:57:11.679Z,11.83
2019-03-29T04:58:11.684Z,11.86
2019-03-29T04:59:11.694Z,11.78
2019-03-29T05:00:11.689Z,11.85
2019-03-29T05:01:11.658Z,11.82
2019-03-29T05:02:11.668Z,11.9
2019-03-29T05:03:11.642Z,11.83
2019-03-29T05:04:11.666Z,11.83
2019-03-29T05:05:11.611Z,11.83
2019-03-29T05:06:11.638Z,11.91
2019-03-29T05:07:11.598Z,11.96
2019-03-29T05:08:11.603Z,11.95
2019-03-29T05:09:11.570Z,11.95
2019-03-29T05:10:25.333Z,12.01
2019-03-29T05:11:11.584Z,11.99
2019-03-29T05:12:11.573Z,11.95
2019-03-29T05:13:11.591Z,12.04
2019-03-29T05:14:11.564Z,12.02
2019-03-29T05:15:11.532Z,12.02
2019-03-29T05:16:11.520Z,11.99
2019-03-29T05:17:11.496Z,12.14
2019-03-29T05:18:11.522Z,11.98
2019-03-29T05:19:11.480Z,12.04
2019-03-29T05:20:11.500Z,12.04
2019-03-29T05:21:11.456Z,12.1
2019-03-29T05:22:11.491Z,12.1
2019-03-29T05:23:11.438Z,12.2
2019-03-29T05:24:11.451Z,12.13
2019-03-29T05:25:11.426Z,12.14
2019-03-29T05:26:11.444Z,12.21
2019-03-29T05:27:11.429Z,12.2
2019-03-29T05:28:11.411Z,12.14
2019-03-29T05:29:11.433Z,12.19
2019-03-29T05:30:11.375Z,12.17
2019-03-29T05:31:11.391Z,12.17
2019-03-29T05:32:11.372Z,12.24
2019-03-29T05:33:11.379Z,12.27
2019-03-29T05:34:11.358Z,12.31
2019-03-29T05:35:11.353Z,12.32
2019-03-29T05:36:11.317Z,12.29
2019-03-29T05:37:11.347Z,12.34
2019-03-29T05:38:11.298Z,12.39
2019-03-29T05:39:11.325Z,12.46
2019-03-29T05:40:11.337Z,12.49
2019-03-29T05:41:11.272Z,12.45
2019-03-29T05:42:11.301Z,12.47
2019-03-29T05:43:11.288Z,12.46
2019-03-29T05:44:11.262Z,12.5
2019-03-29T05:45:11.236Z,12.56
2019-03-29T05:46:11.225Z,12.56
2019-03-29T05:47:11.247Z,12.49
2019-03-29T05:48:11.231Z,12.53
2019-03-29T05:49:11.237Z,12.54
2019-03-29T05:50:11.186Z,12.64
2019-03-29T05:51:11.212Z,12.64
2019-03-29T05:52:11.183Z,12.62
2019-03-29T05:53:11.200Z,12.62
2019-03-29T05:54:11.155Z,12.6
2019-03-29T05:55:11.177Z,12.68
2019-03-29T05:56:11.151Z,12.64
2019-03-29T05:57:11.161Z,12.67
2019-03-29T05:58:11.120Z,12.75
2019-03-29T05:59:11.150Z,12.75
2019-03-29T06:00:11.119Z,12.77
2019-03-29T06:01:11.128Z,12.83
2019-03-29T06:02:11.118Z,12.87
2019-03-29T06:03:12.599Z,12.87
2019-03-29T06:04:11.086Z,12.97
2019-03-29T06:05:11.095Z,13.01
2019-03-29T06:06:11.053Z,13.01
2019-03-29T06:07:11.071Z,13.03
2019-03-29T06:08:11.030Z,13.11
2019-03-29T06:09:11.055Z,13.05
2019-03-29T06:10:11.019Z,13.14
2019-03-29T06:11:10.794Z,13.17
2019-03-29T06:12:11.015Z,13.19
2019-03-29T06:13:11.027Z,13.28
2019-03-29T06:14:10.978Z,13.25
2019-03-29T06:15:10.990Z,13.33
2019-03-29T06:16:11.184Z,13.33
2019-03-29T06:17:11.040Z,13.39
2019-03-29T06:18:10.976Z,13.38
2019-03-29T06:19:10.941Z,13.48
2019-03-29T06:20:10.948Z,13.48
2019-03-29T06:21:10.920Z,13.55
2019-03-29T06:22:10.947Z,13.52
2019-03-29T06:23:10.916Z,13.59
2019-03-29T06:24:10.935Z,13.64
2019-03-29T06:25:10.897Z,13.67
2019-03-29T06:26:10.916Z,13.75
2019-03-29T06:27:10.880Z,13.85
2019-03-29T06:28:10.885Z,13.91
2019-03-29T06:29:10.856Z,13.91
2019-03-29T06:30:10.882Z,14.07
2019-03-29T06:31:10.855Z,14.12
2019-03-29T06:32:10.844Z,14.14
2019-03-29T06:33:10.857Z,14.21
2019-03-29T06:34:10.850Z,14.24
2019-03-29T06:35:10.817Z,14.28
2019-03-29T06:36:10.822Z,14.29
2019-03-29T06:37:10.793Z,14.33
2019-03-29T06:38:10.817Z,14.39
2019-03-29T06:39:10.783Z,14.36
2019-03-29T06:40:10.809Z,14.43
2019-03-29T06:41:10.767Z,14.47
2019-03-29T06:42:10.831Z,14.52
2019-03-29T06:43:10.746Z,14.57
2019-03-29T06:44:10.754Z,14.51
2019-03-29T06:45:10.737Z,14.6
2019-03-29T06:46:10.758Z,14.62
2019-03-29T06:47:10.743Z,14.72
2019-03-29T06:48:10.727Z,14.7
2019-03-29T06:49:10.700Z,14.83
2019-03-29T06:50:13.786Z,14.88
2019-03-29T06:51:10.716Z,14.92
2019-03-29T06:52:10.700Z,14.89
2019-03-29T06:53:10.708Z,15.09
2019-03-29T06:54:10.690Z,15.11
2019-03-29T06:55:10.438Z,15.14
2019-03-29T06:56:10.671Z,15.19
2019-03-29T06:57:10.648Z,15.25
2019-03-29T06:58:10.973Z,15.28
2019-03-29T06:59:10.635Z,15.47
2019-03-29T07:00:10.642Z,15.38
2019-03-29T07:01:10.621Z,15.47
2019-03-29T07:02:10.649Z,15.43
2019-03-29T07:03:10.638Z,15.46
2019-03-29T07:04:10.625Z,15.49
2019-03-29T07:05:10.597Z,15.35
2019-03-29T07:06:10.586Z,15.36
2019-03-29T07:07:10.618Z,15.32
2019-03-29T07:08:10.604Z,15.36
2019-03-29T07:09:10.614Z,15.23
2019-03-29T07:10:10.573Z,15.21
2019-03-29T07:11:21.337Z,15.34
2019-03-29T07:12:10.547Z,15.34
2019-03-29T07:13:10.572Z,15.36
2019-03-29T07:14:10.564Z,15.36
2019-03-29T07:15:10.561Z,15.47
2019-03-29T07:16:10.532Z,15.51
2019-03-29T07:17:12.796Z,15.51
2019-03-29T07:18:10.512Z,15.51
2019-03-29T07:19:10.506Z,15.56
2019-03-29T07:20:10.510Z,15.53
2019-03-29T07:21:23.908Z,15.56
2019-03-29T07:22:10.481Z,15.56
2019-03-29T07:23:10.520Z,15.6
2019-03-29T07:24:10.486Z,15.69
2019-03-29T07:25:10.576Z,15.72
2019-03-29T07:26:10.507Z,15.74
2019-03-29T07:27:10.493Z,15.75
2019-03-29T07:28:10.443Z,15.89
2019-03-29T07:29:10.559Z,15.84
2019-03-29T07:30:10.434Z,15.75
2019-03-29T07:31:10.459Z,15.72
2019-03-29T07:32:10.437Z,15.76
2019-03-29T07:33:10.454Z,15.83
2019-03-29T07:34:10.412Z,15.83
2019-03-29T07:35:10.408Z,15.84
2019-03-29T07:36:10.412Z,15.89
2019-03-29T07:37:10.841Z,15.84
2019-03-29T07:38:10.413Z,15.92
2019-03-29T07:39:10.385Z,15.92
2019-03-29T07:40:10.385Z,16
2019-03-29T07:41:10.363Z,15.97
2019-03-29T07:42:10.444Z,15.96
2019-03-29T07:43:10.356Z,15.96
2019-03-29T07:44:10.381Z,16.02
2019-03-29T07:45:12.699Z,16.08
2019-03-29T07:46:10.364Z,16.11
2019-03-29T07:47:10.338Z,16.17
2019-03-29T07:48:10.393Z,16.21
2019-03-29T07:49:10.347Z,16.27
2019-03-29T07:50:10.312Z,16.31
2019-03-29T07:51:10.348Z,16.31
2019-03-29T07:52:10.311Z,16.33
2019-03-29T07:53:10.329Z,16.39
2019-03-29T07:54:10.388Z,16.43
2019-03-29T07:55:10.285Z,16.38
2019-03-29T07:56:10.294Z,16.45
2019-03-29T07:57:10.273Z,16.53
2019-03-29T07:58:10.048Z,16.52
2019-03-29T07:59:10.262Z,16.6
2019-03-29T08:00:10.287Z,16.52
2019-03-29T08:01:10.824Z,16.7
2019-03-29T08:02:10.290Z,16.76
2019-03-29T08:03:10.234Z,16.82
2019-03-29T08:04:10.256Z,16.88
2019-03-29T08:05:10.223Z,16.94
2019-03-29T08:06:10.248Z,17.01
2019-03-29T08:07:11.359Z,17.08
2019-03-29T08:08:23.100Z,17.07
2019-03-29T08:09:24.059Z,17.04
2019-03-29T08:10:18.859Z,17.07
2019-03-29T08:11:10.219Z,17.06
2019-03-29T08:12:10.221Z,17.07
2019-03-29T08:13:10.257Z,17.07
2019-03-29T08:14:10.214Z,17.08
2019-03-29T08:15:12.287Z,17.12
2019-03-29T08:16:11.535Z,17.14
2019-03-29T08:17:10.161Z,17.19
2019-03-29T08:18:10.191Z,17.25
2019-03-29T08:19:10.158Z,17.21
2019-03-29T08:20:46.507Z,17.3
2019-03-29T08:21:10.142Z,17.3
2019-03-29T08:22:10.168Z,17.23
2019-03-29T08:23:10.253Z,17.3
2019-03-29T08:24:10.145Z,17.34
2019-03-29T08:25:10.122Z,17.38
2019-03-29T08:26:10.152Z,17.36
2019-03-29T08:27:10.122Z,17.4
2019-03-29T08:28:10.316Z,17.41
2019-03-29T08:29:10.195Z,17.46
2019-03-29T08:30:10.140Z,17.49
2019-03-29T08:31:09.878Z,17.56
2019-03-29T08:32:10.131Z,17.59
2019-03-29T08:33:10.081Z,17.64
2019-03-29T08:34:10.107Z,17.71
2019-03-29T08:35:10.081Z,17.74
2019-03-29T08:36:10.090Z,17.77
2019-03-29T08:37:10.065Z,17.75
2019-03-29T08:38:11.167Z,17.79
2019-03-29T08:39:26.924Z,17.74
2019-03-29T08:40:10.068Z,17.81
2019-03-29T08:41:10.170Z,17.71
2019-03-29T08:42:10.073Z,17.78
2019-03-29T08:43:10.046Z,17.74
2019-03-29T08:44:11.769Z,17.77
2019-03-29T08:45:10.027Z,17.75
2019-03-29T08:46:10.055Z,17.75
2019-03-29T08:47:10.056Z,17.86
2019-03-29T08:48:11.692Z,18
2019-03-29T08:49:10.012Z,18.14
2019-03-29T08:50:10.114Z,18.11
2019-03-29T08:51:10.000Z,18.27
2019-03-29T08:52:10.025Z,18.26
2019-03-29T08:53:09.997Z,18.37
2019-03-29T08:54:10.023Z,18.36
2019-03-29T08:55:10.080Z,18.35
2019-03-29T08:56:10.000Z,18.51
2019-03-29T08:57:12.908Z,18.52
2019-03-29T08:58:09.974Z,18.54
2019-03-29T08:59:10.007Z,18.54
2019-03-29T09:00:09.989Z,18.55
2019-03-29T09:01:09.989Z,18.67
2019-03-29T09:02:09.969Z,18.67
2019-03-29T09:03:09.979Z,18.8
2019-03-29T09:04:10.885Z,18.76
2019-03-29T09:05:09.946Z,18.84
2019-03-29T09:06:09.969Z,18.85
2019-03-29T09:07:09.962Z,18.85
2019-03-29T09:08:09.975Z,18.84
2019-03-29T09:09:11.954Z,18.8
2019-03-29T09:10:09.960Z,18.69
2019-03-29T09:11:12.492Z,18.75
2019-03-29T09:12:19.394Z,18.81
2019-03-29T09:13:09.933Z,18.76
2019-03-29T09:14:09.918Z,18.8
2019-03-29T09:15:09.938Z,18.76
2019-03-29T09:16:09.919Z,18.81
2019-03-29T09:17:09.930Z,18.73
2019-03-29T09:18:09.894Z,18.69
2019-03-29T09:19:09.918Z,18.57
2019-03-29T09:20:12.872Z,18.5
2019-03-29T09:21:09.914Z,18.41
2019-03-29T09:22:09.884Z,18.44
2019-03-29T09:23:12.878Z,18.3
2019-03-29T09:24:23.437Z,18.27
2019-03-29T09:25:09.899Z,18.37
2019-03-29T09:26:09.860Z,18.32
2019-03-29T09:27:09.864Z,18.3
2019-03-29T09:28:09.868Z,18.26
2019-03-29T09:29:09.634Z,18.3
2019-03-29T09:30:10.073Z,18.26
2019-03-29T09:31:09.878Z,18.35
2019-03-29T09:32:09.857Z,18.44
2019-03-29T09:33:09.871Z,18.47
2019-03-29T09:34:09.830Z,18.45
2019-03-29T09:35:09.864Z,18.39
2019-03-29T09:36:10.108Z,18.35
2019-03-29T09:37:09.851Z,18.27
2019-03-29T09:38:09.815Z,18.39
2019-03-29T09:39:09.840Z,18.3
2019-03-29T09:40:09.836Z,18.32
2019-03-29T09:41:09.850Z,18.32
2019-03-29T09:42:12.090Z,18.3
2019-03-29T09:43:12.535Z,18.21
2019-03-29T09:44:09.887Z,18.26
2019-03-29T09:45:09.814Z,18.26
2019-03-29T09:46:09.815Z,18.15
2019-03-29T09:47:09.779Z,18.21
2019-03-29T09:48:09.797Z,18.1
2019-03-29T09:49:13.081Z,18.14
2019-03-29T09:50:12.856Z,18.11
2019-03-29T09:51:09.762Z,18.12
2019-03-29T09:52:09.784Z,18.15
2019-03-29T09:53:09.753Z,18.18
2019-03-29T09:54:09.780Z,18.1
2019-03-29T09:55:09.746Z,18.15
2019-03-29T09:56:09.755Z,18.08
2019-03-29T09:57:15.447Z,18.14
2019-03-29T09:58:09.729Z,18.2
2019-03-29T09:59:09.735Z,18.15
2019-03-29T10:00:25.990Z,18.23
2019-03-29T10:01:09.859Z,18.2
2019-03-29T10:02:09.795Z,18.05
2019-03-29T10:03:09.719Z,18.2
2019-03-29T10:04:09.714Z,18.2
2019-03-29T10:05:09.704Z,18.25
2019-03-29T10:06:09.732Z,18.15
2019-03-29T10:07:09.455Z,18.15
2019-03-29T10:08:09.709Z,18.15
2019-03-29T10:09:09.760Z,18.08
2019-03-29T10:10:09.685Z,18.12
2019-03-29T10:11:09.703Z,18.11
2019-03-29T10:12:09.443Z,18.12
2019-03-29T10:13:09.700Z,18
2019-03-29T10:14:09.658Z,17.95
2019-03-29T10:15:09.659Z,17.79
2019-03-29T10:16:09.674Z,17.82
2019-03-29T10:17:09.683Z,17.78
2019-03-29T10:18:09.716Z,17.79
2019-03-29T10:19:09.641Z,17.77
2019-03-29T10:20:09.653Z,17.81
2019-03-29T10:21:09.659Z,17.74
2019-03-29T10:22:09.636Z,17.87
2019-03-29T10:23:09.646Z,17.89
2019-03-29T10:24:09.620Z,17.86
2019-03-29T10:25:24.140Z,17.78
2019-03-29T10:26:09.609Z,17.77
2019-03-29T10:27:09.633Z,17.79
2019-03-29T10:28:09.613Z,17.84
2019-03-29T10:29:09.629Z,17.9
2019-03-29T10:30:09.590Z,17.9
2019-03-29T10:31:09.589Z,17.92
2019-03-29T10:32:13.906Z,17.78
2019-03-29T10:33:09.608Z,17.84
2019-03-29T10:34:09.624Z,17.89
2019-03-29T10:35:09.572Z,17.93
2019-03-29T10:36:09.586Z,17.99
2019-03-29T10:37:09.563Z,18.11
2019-03-29T10:38:09.585Z,18.07
2019-03-29T10:39:09.315Z,18.12
2019-03-29T10:40:09.585Z,18.18
2019-03-29T10:41:09.539Z,18.23
2019-03-29T10:42:09.571Z,18.36
2019-03-29T10:43:09.311Z,18.44
2019-03-29T10:44:09.305Z,18.54
2019-03-29T10:45:09.538Z,18.55
2019-03-29T10:46:09.580Z,18.67
2019-03-29T10:47:09.519Z,18.66
2019-03-29T10:48:09.531Z,18.72
2019-03-29T10:49:09.555Z,18.66
2019-03-29T10:50:09.536Z,18.66
2019-03-29T10:51:13.088Z,18.84
2019-03-29T10:52:09.512Z,18.67
2019-03-29T10:53:09.253Z,18.82
2019-03-29T10:54:09.530Z,18.84
2019-03-29T10:55:09.491Z,18.94
2019-03-29T10:56:09.533Z,18.99
2019-03-29T10:57:09.476Z,18.98
2019-03-29T10:58:12.213Z,19.02
2019-03-29T10:59:09.471Z,19.13
2019-03-29T11:00:09.484Z,19.14
2019-03-29T11:01:09.461Z,19.16
2019-03-29T11:02:09.493Z,19.11
2019-03-29T11:03:09.498Z,19.13
2019-03-29T11:04:09.471Z,19.26
2019-03-29T11:05:09.456Z,19.36
2019-03-29T11:06:09.250Z,19.32
2019-03-29T11:07:09.508Z,19.37
2019-03-29T11:08:11.543Z,19.55
2019-03-29T11:09:09.465Z,19.62
2019-03-29T11:10:09.436Z,19.63
2019-03-29T11:11:09.454Z,19.78
2019-03-29T11:12:09.442Z,19.86
2019-03-29T11:13:17.531Z,19.87
2019-03-29T11:14:09.452Z,20.05
2019-03-29T11:15:11.420Z,20.03
2019-03-29T11:16:09.427Z,20.18
2019-03-29T11:17:09.409Z,20.14
2019-03-29T11:18:09.444Z,20.08
2019-03-29T11:19:09.429Z,20.03
2019-03-29T11:20:09.421Z,19.98
2019-03-29T11:21:09.397Z,20.02
2019-03-29T11:22:09.392Z,20.05
2019-03-29T11:23:09.422Z,20.05
2019-03-29T11:24:11.710Z,20.17
2019-03-29T11:25:09.417Z,20.21
2019-03-29T11:26:09.385Z,20.26
2019-03-29T11:27:09.407Z,20.28
2019-03-29T11:28:09.374Z,20.29
2019-03-29T11:29:09.409Z,20.23
2019-03-29T11:30:09.374Z,20.18
2019-03-29T11:31:09.503Z,20.14
2019-03-29T11:32:09.377Z,20.16
2019-03-29T11:33:09.426Z,20.05
2019-03-29T11:34:09.357Z,20.02
2019-03-29T11:35:09.360Z,19.94
2019-03-29T11:36:09.369Z,19.91
2019-03-29T11:37:09.378Z,19.88
2019-03-29T11:38:09.448Z,19.91
2019-03-29T11:39:09.374Z,19.87
2019-03-29T11:40:09.359Z,19.83
2019-03-29T11:41:09.369Z,19.81
2019-03-29T11:42:09.332Z,19.78
2019-03-29T11:43:09.358Z,19.76
2019-03-29T11:44:09.327Z,19.71
2019-03-29T11:45:09.356Z,19.59
2019-03-29T11:46:09.322Z,19.54
2019-03-29T11:47:09.349Z,19.54
2019-03-29T11:48:13.991Z,19.5
2019-03-29T11:49:09.345Z,19.56
2019-03-29T11:50:09.306Z,19.51
2019-03-29T11:51:23.147Z,19.56
2019-03-29T11:52:09.321Z,19.61
2019-03-29T11:53:09.307Z,19.62
2019-03-29T11:54:09.297Z,19.71
2019-03-29T11:55:09.318Z,19.68
2019-03-29T11:56:09.305Z,19.77
2019-03-29T11:57:09.322Z,19.95
2019-03-29T11:58:09.284Z,19.94
2019-03-29T11:59:09.305Z,20.05
2019-03-29T12:00:09.311Z,20.26
2019-03-29T12:01:10.425Z,20.41
2019-03-29T12:02:09.266Z,20.54
2019-03-29T12:03:11.784Z,20.62
2019-03-29T12:04:09.280Z,20.69
2019-03-29T12:05:09.259Z,20.79
2019-03-29T12:06:09.292Z,20.69
2019-03-29T12:07:09.287Z,20.73
2019-03-29T12:08:09.269Z,20.76
2019-03-29T12:09:09.275Z,20.85
2019-03-29T12:10:09.247Z,20.89
2019-03-29T12:11:09.274Z,20.79
2019-03-29T12:12:09.265Z,20.62
2019-03-29T12:13:09.290Z,20.57
2019-03-29T12:14:09.917Z,20.52
2019-03-29T12:15:09.261Z,20.36
2019-03-29T12:16:09.227Z,20.42
2019-03-29T12:17:09.255Z,20.31
2019-03-29T12:18:09.230Z,20.29
2019-03-29T12:19:09.254Z,20.24
2019-03-29T12:20:09.317Z,20.26
2019-03-29T12:21:09.288Z,20.17
2019-03-29T12:22:09.218Z,20.06
2019-03-29T12:23:09.217Z,20.23
2019-03-29T12:24:09.224Z,20.14
2019-03-29T12:25:09.235Z,20.16
2019-03-29T12:26:09.236Z,20.1
2019-03-29T12:27:09.202Z,20.05
2019-03-29T12:28:09.253Z,20.05
2019-03-29T12:29:09.229Z,20.02
2019-03-29T12:30:09.188Z,20.1
2019-03-29T12:31:09.215Z,20.14
2019-03-29T12:32:09.185Z,20.13
2019-03-29T12:33:09.214Z,20.13
2019-03-29T12:34:09.179Z,20.18
2019-03-29T12:35:12.438Z,20.18
2019-03-29T12:36:09.183Z,20.2
2019-03-29T12:37:09.201Z,20.13
2019-03-29T12:38:09.174Z,20.21
2019-03-29T12:39:09.174Z,20.2
2019-03-29T12:40:09.176Z,20.2
2019-03-29T12:41:09.198Z,20.1
2019-03-29T12:42:09.022Z,20.08
2019-03-29T12:43:12.338Z,19.95
2019-03-29T12:44:09.163Z,19.94
2019-03-29T12:45:09.145Z,19.92
2019-03-29T12:46:09.181Z,19.84
2019-03-29T12:47:09.144Z,19.77
2019-03-29T12:48:09.172Z,19.69
2019-03-29T12:49:08.884Z,19.68
2019-03-29T12:50:09.164Z,19.81
2019-03-29T12:51:09.127Z,19.86
2019-03-29T12:52:09.135Z,19.99
2019-03-29T12:53:09.116Z,20.02
2019-03-29T12:54:11.971Z,20.03
2019-03-29T12:55:09.119Z,20.17